sensor_id;sensor_type;location;lat;lon;timestamp;P1;durP1;ratioP1;P2;durP2;ratioP2
7412;SDS011;3748;48.136;11.538;2023-02-04T00:02:03;3.30;;;2.20;;
7412;SDS011;3748;48.136;11.538;2023-02-04T00:04:29;2.70;;;2.30;;
7412;SDS011;3748;48.136;11.538;2023-02-04T00:06:56;2.63;;;2.23;;
7412;SDS011;3748;48.136;11.538;2023-02-04T00:09:23;3.20;;;2.50;;
7412;SDS011;3748;48.136;11.538;2023-02-04T00:11:49;3.00;;;2.00;;
7412;SDS011;3748;48.136;11.538;2023-02-04T00:14:16;2.50;;;2.30;;
7412;SDS011;3748;48.136;11.538;2023-02-04T00:16:43;3.90;;;2.87;;
7412;SDS011;3748;48.136;11.538;2023-02-04T00:19:11;2.37;;;2.17;;
7412;SDS011;3748;48.136;11.538;2023-02-04T00:21:38;2.40;;;2.20;;
7412;SDS011;3748;48.136;11.538;2023-02-04T00:24:04;2.40;;;2.20;;
7412;SDS011;3748;48.136;11.538;2023-02-04T00:26:31;2.57;;;2.37;;
7412;SDS011;3748;48.136;11.538;2023-02-04T00:28:58;2.40;;;2.27;;
7412;SDS011;3748;48.136;11.538;2023-02-04T00:31:25;2.50;;;2.30;;
7412;SDS011;3748;48.136;11.538;2023-02-04T00:33:52;2.53;;;2.20;;
7412;SDS011;3748;48.136;11.538;2023-02-04T00:36:20;3.13;;;2.93;;
7412;SDS011;3748;48.136;11.538;2023-02-04T00:38:46;1.50;;;1.40;;
7412;SDS011;3748;48.136;11.538;2023-02-04T00:41:13;2.83;;;2.63;;
7412;SDS011;3748;48.136;11.538;2023-02-04T00:43:40;2.07;;;1.97;;
7412;SDS011;3748;48.136;11.538;2023-02-04T00:46:06;4.27;;;2.20;;
7412;SDS011;3748;48.136;11.538;2023-02-04T00:48:33;2.43;;;2.23;;
7412;SDS011;3748;48.136;11.538;2023-02-04T00:51:00;2.17;;;2.00;;
7412;SDS011;3748;48.136;11.538;2023-02-04T00:53:28;2.10;;;2.00;;
7412;SDS011;3748;48.136;11.538;2023-02-04T00:55:55;2.90;;;2.30;;
7412;SDS011;3748;48.136;11.538;2023-02-04T00:58:22;2.43;;;2.23;;
7412;SDS011;3748;48.136;11.538;2023-02-04T01:00:49;2.43;;;2.30;;
7412;SDS011;3748;48.136;11.538;2023-02-04T01:03:15;1.93;;;1.70;;
7412;SDS011;3748;48.136;11.538;2023-02-04T01:05:42;2.73;;;2.53;;
7412;SDS011;3748;48.136;11.538;2023-02-04T01:08:09;2.00;;;1.80;;
7412;SDS011;3748;48.136;11.538;2023-02-04T01:10:37;2.30;;;2.10;;
7412;SDS011;3748;48.136;11.538;2023-02-04T01:13:04;1.50;;;1.40;;
7412;SDS011;3748;48.136;11.538;2023-02-04T01:15:32;2.27;;;2.07;;
7412;SDS011;3748;48.136;11.538;2023-02-04T01:17:59;1.93;;;1.70;;
7412;SDS011;3748;48.136;11.538;2023-02-04T01:20:25;2.50;;;2.30;;
7412;SDS011;3748;48.136;11.538;2023-02-04T01:22:53;2.60;;;2.00;;
7412;SDS011;3748;48.136;11.538;2023-02-04T01:25:19;2.10;;;1.90;;
7412;SDS011;3748;48.136;11.538;2023-02-04T01:27:47;7.23;;;1.80;;
7412;SDS011;3748;48.136;11.538;2023-02-04T01:30:14;2.47;;;1.90;;
7412;SDS011;3748;48.136;11.538;2023-02-04T01:32:41;1.83;;;1.73;;
7412;SDS011;3748;48.136;11.538;2023-02-04T01:35:08;3.60;;;1.50;;
7412;SDS011;3748;48.136;11.538;2023-02-04T01:37:36;1.77;;;1.50;;
7412;SDS011;3748;48.136;11.538;2023-02-04T01:40:03;4.13;;;1.70;;
7412;SDS011;3748;48.136;11.538;2023-02-04T01:42:30;2.67;;;1.53;;
7412;SDS011;3748;48.136;11.538;2023-02-04T01:44:58;1.53;;;1.40;;
7412;SDS011;3748;48.136;11.538;2023-02-04T01:47:25;1.80;;;1.50;;
7412;SDS011;3748;48.136;11.538;2023-02-04T01:49:52;2.20;;;1.40;;
7412;SDS011;3748;48.136;11.538;2023-02-04T01:52:20;2.70;;;1.30;;
7412;SDS011;3748;48.136;11.538;2023-02-04T01:54:48;1.70;;;1.60;;
7412;SDS011;3748;48.136;11.538;2023-02-04T01:57:15;1.53;;;1.40;;
7412;SDS011;3748;48.136;11.538;2023-02-04T01:59:42;2.60;;;1.50;;
7412;SDS011;3748;48.136;11.538;2023-02-04T02:05:08;1.47;;;1.37;;
7412;SDS011;3748;48.136;11.538;2023-02-04T02:07:36;3.27;;;1.70;;
7412;SDS011;3748;48.136;11.538;2023-02-04T02:10:04;1.77;;;1.40;;
7412;SDS011;3748;48.136;11.538;2023-02-04T02:12:32;4.37;;;1.80;;
7412;SDS011;3748;48.136;11.538;2023-02-04T02:14:59;2.77;;;1.67;;
7412;SDS011;3748;48.136;11.538;2023-02-04T02:17:26;2.80;;;1.70;;
7412;SDS011;3748;48.136;11.538;2023-02-04T02:19:54;3.20;;;1.60;;
7412;SDS011;3748;48.136;11.538;2023-02-04T02:22:22;4.67;;;2.57;;
7412;SDS011;3748;48.136;11.538;2023-02-04T02:24:53;3.03;;;2.03;;
7412;SDS011;3748;48.136;11.538;2023-02-04T02:27:20;10.93;;;3.20;;
7412;SDS011;3748;48.136;11.538;2023-02-04T02:29:47;4.03;;;2.37;;
7412;SDS011;3748;48.136;11.538;2023-02-04T02:32:15;4.33;;;2.47;;
7412;SDS011;3748;48.136;11.538;2023-02-04T02:34:42;4.37;;;2.00;;
7412;SDS011;3748;48.136;11.538;2023-02-04T02:37:10;4.67;;;2.87;;
7412;SDS011;3748;48.136;11.538;2023-02-04T02:39:38;5.97;;;2.63;;
7412;SDS011;3748;48.136;11.538;2023-02-04T02:42:08;3.53;;;2.17;;
7412;SDS011;3748;48.136;11.538;2023-02-04T02:44:36;5.10;;;3.60;;
7412;SDS011;3748;48.136;11.538;2023-02-04T02:47:03;5.83;;;3.50;;
7412;SDS011;3748;48.136;11.538;2023-02-04T02:49:30;6.50;;;3.47;;
7412;SDS011;3748;48.136;11.538;2023-02-04T02:51:59;9.43;;;3.80;;
7412;SDS011;3748;48.136;11.538;2023-02-04T02:54:26;13.00;;;3.30;;
7412;SDS011;3748;48.136;11.538;2023-02-04T02:56:54;5.70;;;2.43;;
7412;SDS011;3748;48.136;11.538;2023-02-04T02:59:24;7.43;;;4.10;;
7412;SDS011;3748;48.136;11.538;2023-02-04T03:01:52;6.87;;;3.90;;
7412;SDS011;3748;48.136;11.538;2023-02-04T03:04:22;7.77;;;3.53;;
7412;SDS011;3748;48.136;11.538;2023-02-04T03:06:50;17.23;;;5.73;;
7412;SDS011;3748;48.136;11.538;2023-02-04T03:09:17;9.77;;;3.90;;
7412;SDS011;3748;48.136;11.538;2023-02-04T03:11:44;7.90;;;3.90;;
7412;SDS011;3748;48.136;11.538;2023-02-04T03:14:11;10.53;;;3.80;;
7412;SDS011;3748;48.136;11.538;2023-02-04T03:16:39;15.60;;;5.37;;
7412;SDS011;3748;48.136;11.538;2023-02-04T03:19:08;5.43;;;3.53;;
7412;SDS011;3748;48.136;11.538;2023-02-04T03:21:36;9.70;;;4.47;;
7412;SDS011;3748;48.136;11.538;2023-02-04T03:24:03;8.57;;;3.50;;
7412;SDS011;3748;48.136;11.538;2023-02-04T03:26:31;15.50;;;5.73;;
7412;SDS011;3748;48.136;11.538;2023-02-04T03:28:58;16.20;;;4.23;;
7412;SDS011;3748;48.136;11.538;2023-02-04T03:31:25;7.43;;;3.33;;
7412;SDS011;3748;48.136;11.538;2023-02-04T03:33:53;8.80;;;3.00;;
7412;SDS011;3748;48.136;11.538;2023-02-04T03:36:19;9.47;;;3.93;;
7412;SDS011;3748;48.136;11.538;2023-02-04T03:38:46;17.57;;;4.20;;
7412;SDS011;3748;48.136;11.538;2023-02-04T03:41:13;7.80;;;4.20;;
7412;SDS011;3748;48.136;11.538;2023-02-04T03:43:40;14.93;;;4.83;;
7412;SDS011;3748;48.136;11.538;2023-02-04T03:46:06;15.90;;;5.63;;
7412;SDS011;3748;48.136;11.538;2023-02-04T03:48:33;6.60;;;3.90;;
7412;SDS011;3748;48.136;11.538;2023-02-04T03:51:01;7.30;;;4.33;;
7412;SDS011;3748;48.136;11.538;2023-02-04T03:53:28;15.80;;;4.50;;
7412;SDS011;3748;48.136;11.538;2023-02-04T03:55:55;6.83;;;3.27;;
7412;SDS011;3748;48.136;11.538;2023-02-04T03:58:22;6.63;;;3.60;;
7412;SDS011;3748;48.136;11.538;2023-02-04T04:00:49;12.00;;;4.00;;
7412;SDS011;3748;48.136;11.538;2023-02-04T04:03:15;10.70;;;4.03;;
7412;SDS011;3748;48.136;11.538;2023-02-04T04:05:42;13.17;;;4.83;;
7412;SDS011;3748;48.136;11.538;2023-02-04T04:08:10;8.87;;;3.97;;
7412;SDS011;3748;48.136;11.538;2023-02-04T04:10:37;8.60;;;4.00;;
7412;SDS011;3748;48.136;11.538;2023-02-04T04:13:04;7.43;;;3.53;;
7412;SDS011;3748;48.136;11.538;2023-02-04T04:15:30;10.30;;;3.50;;
7412;SDS011;3748;48.136;11.538;2023-02-04T04:17:57;9.57;;;4.00;;
7412;SDS011;3748;48.136;11.538;2023-02-04T04:20:24;9.60;;;3.80;;
7412;SDS011;3748;48.136;11.538;2023-02-04T04:22:52;5.87;;;3.60;;
7412;SDS011;3748;48.136;11.538;2023-02-04T04:25:20;11.67;;;3.70;;
7412;SDS011;3748;48.136;11.538;2023-02-04T04:27:46;11.23;;;4.00;;
7412;SDS011;3748;48.136;11.538;2023-02-04T04:30:13;6.23;;;4.00;;
7412;SDS011;3748;48.136;11.538;2023-02-04T04:32:40;15.40;;;5.00;;
7412;SDS011;3748;48.136;11.538;2023-02-04T04:35:07;6.43;;;3.50;;
7412;SDS011;3748;48.136;11.538;2023-02-04T04:37:34;16.43;;;5.30;;
7412;SDS011;3748;48.136;11.538;2023-02-04T04:40:00;7.90;;;3.73;;
7412;SDS011;3748;48.136;11.538;2023-02-04T04:42:28;8.07;;;4.00;;
7412;SDS011;3748;48.136;11.538;2023-02-04T04:44:55;6.13;;;3.10;;
7412;SDS011;3748;48.136;11.538;2023-02-04T04:47:22;5.67;;;3.17;;
7412;SDS011;3748;48.136;11.538;2023-02-04T04:49:49;10.83;;;3.70;;
7412;SDS011;3748;48.136;11.538;2023-02-04T04:52:15;12.10;;;3.73;;
7412;SDS011;3748;48.136;11.538;2023-02-04T04:54:42;12.40;;;3.87;;
7412;SDS011;3748;48.136;11.538;2023-02-04T04:57:09;11.90;;;3.70;;
7412;SDS011;3748;48.136;11.538;2023-02-04T04:59:37;9.57;;;3.00;;
7412;SDS011;3748;48.136;11.538;2023-02-04T05:02:04;7.53;;;3.00;;
7412;SDS011;3748;48.136;11.538;2023-02-04T05:04:31;13.80;;;3.37;;
7412;SDS011;3748;48.136;11.538;2023-02-04T05:06:57;5.03;;;3.80;;
7412;SDS011;3748;48.136;11.538;2023-02-04T05:09:24;4.70;;;2.90;;
7412;SDS011;3748;48.136;11.538;2023-02-04T05:11:51;9.20;;;3.03;;
7412;SDS011;3748;48.136;11.538;2023-02-04T05:14:17;17.17;;;4.07;;
7412;SDS011;3748;48.136;11.538;2023-02-04T05:16:46;7.93;;;3.97;;
7412;SDS011;3748;48.136;11.538;2023-02-04T05:19:12;6.60;;;3.90;;
7412;SDS011;3748;48.136;11.538;2023-02-04T05:21:39;6.93;;;3.50;;
7412;SDS011;3748;48.136;11.538;2023-02-04T05:24:06;4.80;;;2.87;;
7412;SDS011;3748;48.136;11.538;2023-02-04T05:26:33;13.40;;;4.53;;
7412;SDS011;3748;48.136;11.538;2023-02-04T05:29:06;5.20;;;4.23;;
7412;SDS011;3748;48.136;11.538;2023-02-04T05:31:34;11.87;;;3.33;;
7412;SDS011;3748;48.136;11.538;2023-02-04T05:34:02;7.80;;;3.83;;
7412;SDS011;3748;48.136;11.538;2023-02-04T05:36:29;6.20;;;2.40;;
7412;SDS011;3748;48.136;11.538;2023-02-04T05:39:03;5.70;;;4.47;;
7412;SDS011;3748;48.136;11.538;2023-02-04T05:41:30;9.00;;;2.70;;
7412;SDS011;3748;48.136;11.538;2023-02-04T05:43:57;12.40;;;3.23;;
7412;SDS011;3748;48.136;11.538;2023-02-04T05:46:24;7.60;;;3.23;;
7412;SDS011;3748;48.136;11.538;2023-02-04T05:48:51;12.00;;;3.50;;
7412;SDS011;3748;48.136;11.538;2023-02-04T05:51:19;7.00;;;3.47;;
7412;SDS011;3748;48.136;11.538;2023-02-04T05:53:45;10.00;;;3.60;;
7412;SDS011;3748;48.136;11.538;2023-02-04T05:56:12;9.30;;;3.77;;
7412;SDS011;3748;48.136;11.538;2023-02-04T05:58:39;8.30;;;3.90;;
7412;SDS011;3748;48.136;11.538;2023-02-04T06:01:06;3.60;;;3.00;;
7412;SDS011;3748;48.136;11.538;2023-02-04T06:03:32;7.80;;;3.30;;
7412;SDS011;3748;48.136;11.538;2023-02-04T06:05:59;8.10;;;3.60;;
7412;SDS011;3748;48.136;11.538;2023-02-04T06:08:27;23.63;;;3.60;;
7412;SDS011;3748;48.136;11.538;2023-02-04T06:10:54;9.53;;;2.97;;
7412;SDS011;3748;48.136;11.538;2023-02-04T06:13:21;8.30;;;3.37;;
7412;SDS011;3748;48.136;11.538;2023-02-04T06:15:48;9.73;;;4.50;;
7412;SDS011;3748;48.136;11.538;2023-02-04T06:18:14;7.60;;;4.10;;
7412;SDS011;3748;48.136;11.538;2023-02-04T06:20:41;6.43;;;4.30;;
7412;SDS011;3748;48.136;11.538;2023-02-04T06:23:08;7.23;;;4.23;;
7412;SDS011;3748;48.136;11.538;2023-02-04T06:25:36;6.07;;;3.00;;
7412;SDS011;3748;48.136;11.538;2023-02-04T06:28:03;5.80;;;3.23;;
7412;SDS011;3748;48.136;11.538;2023-02-04T06:30:30;10.30;;;3.17;;
7412;SDS011;3748;48.136;11.538;2023-02-04T06:32:56;9.43;;;3.20;;
7412;SDS011;3748;48.136;11.538;2023-02-04T06:35:23;11.53;;;3.90;;
7412;SDS011;3748;48.136;11.538;2023-02-04T06:37:50;9.20;;;4.00;;
7412;SDS011;3748;48.136;11.538;2023-02-04T06:40:17;8.80;;;3.77;;
7412;SDS011;3748;48.136;11.538;2023-02-04T06:42:45;7.40;;;3.90;;
7412;SDS011;3748;48.136;11.538;2023-02-04T06:45:12;7.47;;;3.40;;
7412;SDS011;3748;48.136;11.538;2023-02-04T06:47:38;7.70;;;3.30;;
7412;SDS011;3748;48.136;11.538;2023-02-04T06:50:05;10.83;;;3.73;;
7412;SDS011;3748;48.136;11.538;2023-02-04T06:52:33;11.23;;;4.27;;
7412;SDS011;3748;48.136;11.538;2023-02-04T06:54:59;6.03;;;3.57;;
7412;SDS011;3748;48.136;11.538;2023-02-04T06:57:26;13.50;;;6.40;;
7412;SDS011;3748;48.136;11.538;2023-02-04T06:59:54;20.43;;;3.90;;
7412;SDS011;3748;48.136;11.538;2023-02-04T07:02:21;5.53;;;3.40;;
7412;SDS011;3748;48.136;11.538;2023-02-04T07:04:48;10.90;;;4.20;;
7412;SDS011;3748;48.136;11.538;2023-02-04T07:07:15;7.23;;;4.20;;
7412;SDS011;3748;48.136;11.538;2023-02-04T07:09:41;7.50;;;4.20;;
7412;SDS011;3748;48.136;11.538;2023-02-04T07:12:08;7.00;;;4.10;;
7412;SDS011;3748;48.136;11.538;2023-02-04T07:14:35;10.30;;;4.07;;
7412;SDS011;3748;48.136;11.538;2023-02-04T07:17:03;8.60;;;3.80;;
7412;SDS011;3748;48.136;11.538;2023-02-04T07:19:30;5.77;;;2.97;;
7412;SDS011;3748;48.136;11.538;2023-02-04T07:21:57;10.57;;;3.37;;
7412;SDS011;3748;48.136;11.538;2023-02-04T07:24:24;9.40;;;4.17;;
7412;SDS011;3748;48.136;11.538;2023-02-04T07:26:51;10.70;;;3.20;;
7412;SDS011;3748;48.136;11.538;2023-02-04T07:29:18;8.53;;;3.30;;
7412;SDS011;3748;48.136;11.538;2023-02-04T07:31:44;5.20;;;2.90;;
7412;SDS011;3748;48.136;11.538;2023-02-04T07:34:13;3.70;;;3.30;;
7412;SDS011;3748;48.136;11.538;2023-02-04T07:36:40;7.37;;;2.73;;
7412;SDS011;3748;48.136;11.538;2023-02-04T07:39:07;10.80;;;2.70;;
7412;SDS011;3748;48.136;11.538;2023-02-04T07:41:36;6.50;;;3.40;;
7412;SDS011;3748;48.136;11.538;2023-02-04T07:44:03;11.27;;;3.77;;
7412;SDS011;3748;48.136;11.538;2023-02-04T07:46:30;7.10;;;2.73;;
7412;SDS011;3748;48.136;11.538;2023-02-04T07:48:57;10.90;;;3.67;;
7412;SDS011;3748;48.136;11.538;2023-02-04T07:51:25;6.10;;;2.93;;
7412;SDS011;3748;48.136;11.538;2023-02-04T07:53:52;8.10;;;3.17;;
7412;SDS011;3748;48.136;11.538;2023-02-04T07:56:18;12.93;;;3.73;;
7412;SDS011;3748;48.136;11.538;2023-02-04T07:58:45;5.07;;;2.40;;
7412;SDS011;3748;48.136;11.538;2023-02-04T08:01:12;12.77;;;3.70;;
7412;SDS011;3748;48.136;11.538;2023-02-04T08:03:39;8.57;;;3.73;;
7412;SDS011;3748;48.136;11.538;2023-02-04T08:06:06;10.93;;;3.50;;
7412;SDS011;3748;48.136;11.538;2023-02-04T08:08:34;4.43;;;3.00;;
7412;SDS011;3748;48.136;11.538;2023-02-04T08:11:01;14.77;;;3.97;;
7412;SDS011;3748;48.136;11.538;2023-02-04T08:13:28;3.97;;;3.20;;
7412;SDS011;3748;48.136;11.538;2023-02-04T08:15:55;6.03;;;3.00;;
7412;SDS011;3748;48.136;11.538;2023-02-04T08:18:22;7.47;;;3.60;;
7412;SDS011;3748;48.136;11.538;2023-02-04T08:20:49;7.53;;;3.40;;
7412;SDS011;3748;48.136;11.538;2023-02-04T08:23:16;4.63;;;3.33;;
7412;SDS011;3748;48.136;11.538;2023-02-04T08:25:44;3.30;;;2.93;;
7412;SDS011;3748;48.136;11.538;2023-02-04T08:28:11;7.63;;;3.40;;
7412;SDS011;3748;48.136;11.538;2023-02-04T08:30:38;4.33;;;3.10;;
7412;SDS011;3748;48.136;11.538;2023-02-04T08:33:04;11.13;;;3.60;;
7412;SDS011;3748;48.136;11.538;2023-02-04T08:35:31;6.80;;;3.50;;
7412;SDS011;3748;48.136;11.538;2023-02-04T08:37:58;8.87;;;3.70;;
7412;SDS011;3748;48.136;11.538;2023-02-04T08:40:25;9.43;;;3.10;;
7412;SDS011;3748;48.136;11.538;2023-02-04T08:42:53;8.67;;;3.00;;
7412;SDS011;3748;48.136;11.538;2023-02-04T08:45:20;9.80;;;2.80;;
7412;SDS011;3748;48.136;11.538;2023-02-04T08:47:46;12.83;;;3.50;;
7412;SDS011;3748;48.136;11.538;2023-02-04T08:50:13;9.13;;;4.20;;
7412;SDS011;3748;48.136;11.538;2023-02-04T08:52:40;6.57;;;4.33;;
7412;SDS011;3748;48.136;11.538;2023-02-04T08:55:07;8.67;;;4.23;;
7412;SDS011;3748;48.136;11.538;2023-02-04T08:57:34;6.43;;;3.50;;
7412;SDS011;3748;48.136;11.538;2023-02-04T09:00:02;5.37;;;3.30;;
7412;SDS011;3748;48.136;11.538;2023-02-04T09:05:05;9.63;;;3.67;;
7412;SDS011;3748;48.136;11.538;2023-02-04T09:07:32;9.83;;;3.87;;
7412;SDS011;3748;48.136;11.538;2023-02-04T09:10:02;9.40;;;3.33;;
7412;SDS011;3748;48.136;11.538;2023-02-04T09:12:31;6.27;;;2.67;;
7412;SDS011;3748;48.136;11.538;2023-02-04T09:14:58;5.60;;;3.20;;
7412;SDS011;3748;48.136;11.538;2023-02-04T09:17:26;15.43;;;3.13;;
7412;SDS011;3748;48.136;11.538;2023-02-04T09:19:53;13.20;;;4.53;;
7412;SDS011;3748;48.136;11.538;2023-02-04T09:22:20;7.50;;;2.93;;
7412;SDS011;3748;48.136;11.538;2023-02-04T09:24:47;8.03;;;3.30;;
7412;SDS011;3748;48.136;11.538;2023-02-04T09:27:14;8.67;;;3.10;;
7412;SDS011;3748;48.136;11.538;2023-02-04T09:29:41;9.60;;;2.60;;
7412;SDS011;3748;48.136;11.538;2023-02-04T09:32:08;9.33;;;4.27;;
7412;SDS011;3748;48.136;11.538;2023-02-04T09:34:36;9.33;;;2.33;;
7412;SDS011;3748;48.136;11.538;2023-02-04T09:37:03;5.17;;;4.67;;
7412;SDS011;3748;48.136;11.538;2023-02-04T09:39:30;8.43;;;2.83;;
7412;SDS011;3748;48.136;11.538;2023-02-04T09:41:57;12.27;;;3.60;;
7412;SDS011;3748;48.136;11.538;2023-02-04T09:44:25;7.03;;;3.17;;
7412;SDS011;3748;48.136;11.538;2023-02-04T09:46:54;9.90;;;3.40;;
7412;SDS011;3748;48.136;11.538;2023-02-04T09:49:23;7.17;;;3.27;;
7412;SDS011;3748;48.136;11.538;2023-02-04T09:51:53;6.40;;;2.40;;
7412;SDS011;3748;48.136;11.538;2023-02-04T09:54:21;5.03;;;2.80;;
7412;SDS011;3748;48.136;11.538;2023-02-04T09:56:49;13.40;;;3.80;;
7412;SDS011;3748;48.136;11.538;2023-02-04T10:20:02;11.40;;;3.50;;
7412;SDS011;3748;48.136;11.538;2023-02-04T10:22:29;7.23;;;2.90;;
7412;SDS011;3748;48.136;11.538;2023-02-04T10:24:56;13.93;;;4.03;;
7412;SDS011;3748;48.136;11.538;2023-02-04T10:27:23;5.73;;;2.40;;
7412;SDS011;3748;48.136;11.538;2023-02-04T10:29:54;4.40;;;2.87;;
7412;SDS011;3748;48.136;11.538;2023-02-04T10:32:25;11.27;;;4.80;;
7412;SDS011;3748;48.136;11.538;2023-02-04T10:34:57;11.20;;;4.60;;
7412;SDS011;3748;48.136;11.538;2023-02-04T10:37:27;7.43;;;2.80;;
7412;SDS011;3748;48.136;11.538;2023-02-04T10:39:56;4.53;;;2.43;;
7412;SDS011;3748;48.136;11.538;2023-02-04T10:42:24;8.77;;;2.07;;
7412;SDS011;3748;48.136;11.538;2023-02-04T10:44:53;1.77;;;1.57;;
7412;SDS011;3748;48.136;11.538;2023-02-04T10:47:21;2.67;;;1.70;;
7412;SDS011;3748;48.136;11.538;2023-02-04T10:49:50;7.10;;;1.67;;
7412;SDS011;3748;48.136;11.538;2023-02-04T10:52:20;7.67;;;2.10;;
7412;SDS011;3748;48.136;11.538;2023-02-04T10:54:50;2.43;;;1.60;;
7412;SDS011;3748;48.136;11.538;2023-02-04T11:15:37;3.03;;;1.40;;
7412;SDS011;3748;48.136;11.538;2023-02-04T11:18:08;1.40;;;1.30;;
7412;SDS011;3748;48.136;11.538;2023-02-04T11:20:36;4.27;;;2.10;;
7412;SDS011;3748;48.136;11.538;2023-02-04T11:23:14;2.03;;;1.50;;
7412;SDS011;3748;48.136;11.538;2023-02-04T11:25:43;2.73;;;1.67;;
7412;SDS011;3748;48.136;11.538;2023-02-04T11:28:13;4.30;;;1.87;;
7412;SDS011;3748;48.136;11.538;2023-02-04T11:30:41;1.13;;;1.00;;
7412;SDS011;3748;48.136;11.538;2023-02-04T11:33:22;5.37;;;1.27;;
7412;SDS011;3748;48.136;11.538;2023-02-04T11:35:56;2.33;;;1.40;;
7412;SDS011;3748;48.136;11.538;2023-02-04T11:38:26;3.90;;;1.97;;
7412;SDS011;3748;48.136;11.538;2023-02-04T11:40:56;2.07;;;1.60;;
7412;SDS011;3748;48.136;11.538;2023-02-04T11:43:25;7.90;;;1.60;;
7412;SDS011;3748;48.136;11.538;2023-02-04T11:46:03;1.73;;;1.60;;
7412;SDS011;3748;48.136;11.538;2023-02-04T11:48:43;2.70;;;1.50;;
7412;SDS011;3748;48.136;11.538;2023-02-04T11:51:29;5.60;;;2.00;;
7412;SDS011;3748;48.136;11.538;2023-02-04T11:53:58;4.80;;;2.50;;
7412;SDS011;3748;48.136;11.538;2023-02-04T11:56:26;3.17;;;2.23;;
7412;SDS011;3748;48.136;11.538;2023-02-04T11:58:57;3.27;;;1.40;;
7412;SDS011;3748;48.136;11.538;2023-02-04T12:01:29;1.90;;;1.33;;
7412;SDS011;3748;48.136;11.538;2023-02-04T12:03:58;4.73;;;2.20;;
7412;SDS011;3748;48.136;11.538;2023-02-04T12:06:28;3.07;;;1.97;;
7412;SDS011;3748;48.136;11.538;2023-02-04T12:09:05;2.60;;;1.47;;
7412;SDS011;3748;48.136;11.538;2023-02-04T12:11:33;1.60;;;1.40;;
7412;SDS011;3748;48.136;11.538;2023-02-04T12:14:05;2.70;;;1.50;;
7412;SDS011;3748;48.136;11.538;2023-02-04T12:16:40;1.63;;;1.27;;
7412;SDS011;3748;48.136;11.538;2023-02-04T12:19:09;2.23;;;1.33;;
7412;SDS011;3748;48.136;11.538;2023-02-04T12:21:36;2.23;;;1.50;;
7412;SDS011;3748;48.136;11.538;2023-02-04T12:24:03;4.23;;;1.90;;
7412;SDS011;3748;48.136;11.538;2023-02-04T12:26:30;2.47;;;1.20;;
7412;SDS011;3748;48.136;11.538;2023-02-04T12:28:57;2.60;;;1.57;;
7412;SDS011;3748;48.136;11.538;2023-02-04T12:31:26;2.30;;;1.53;;
7412;SDS011;3748;48.136;11.538;2023-02-04T12:33:55;4.53;;;2.60;;
7412;SDS011;3748;48.136;11.538;2023-02-04T12:36:21;1.43;;;1.33;;
7412;SDS011;3748;48.136;11.538;2023-02-04T12:38:48;1.53;;;1.40;;
7412;SDS011;3748;48.136;11.538;2023-02-04T12:41:15;5.83;;;1.50;;
7412;SDS011;3748;48.136;11.538;2023-02-04T12:43:43;1.50;;;1.40;;
7412;SDS011;3748;48.136;11.538;2023-02-04T12:46:10;1.87;;;1.67;;
7412;SDS011;3748;48.136;11.538;2023-02-04T12:48:37;2.67;;;1.33;;
7412;SDS011;3748;48.136;11.538;2023-02-04T12:51:06;1.77;;;1.50;;
7412;SDS011;3748;48.136;11.538;2023-02-04T12:53:33;5.13;;;2.57;;
7412;SDS011;3748;48.136;11.538;2023-02-04T12:56:00;1.70;;;1.60;;
7412;SDS011;3748;48.136;11.538;2023-02-04T12:58:27;3.30;;;1.30;;
7412;SDS011;3748;48.136;11.538;2023-02-04T13:00:53;3.40;;;1.90;;
7412;SDS011;3748;48.136;11.538;2023-02-04T13:03:20;2.03;;;1.50;;
7412;SDS011;3748;48.136;11.538;2023-02-04T13:05:48;2.43;;;1.87;;
7412;SDS011;3748;48.136;11.538;2023-02-04T13:08:16;2.80;;;1.40;;
7412;SDS011;3748;48.136;11.538;2023-02-04T13:10:43;4.70;;;2.47;;
7412;SDS011;3748;48.136;11.538;2023-02-04T13:13:14;1.70;;;1.50;;
7412;SDS011;3748;48.136;11.538;2023-02-04T13:15:41;2.00;;;1.90;;
7412;SDS011;3748;48.136;11.538;2023-02-04T13:18:07;2.40;;;1.20;;
7412;SDS011;3748;48.136;11.538;2023-02-04T13:20:34;3.57;;;1.40;;
7412;SDS011;3748;48.136;11.538;2023-02-04T13:23:01;2.27;;;1.70;;
7412;SDS011;3748;48.136;11.538;2023-02-04T13:25:29;6.27;;;1.90;;
7412;SDS011;3748;48.136;11.538;2023-02-04T13:27:56;6.43;;;2.97;;
7412;SDS011;3748;48.136;11.538;2023-02-04T13:30:23;5.30;;;1.93;;
7412;SDS011;3748;48.136;11.538;2023-02-04T13:32:50;5.40;;;1.70;;
7412;SDS011;3748;48.136;11.538;2023-02-04T13:35:16;2.33;;;1.77;;
7412;SDS011;3748;48.136;11.538;2023-02-04T13:37:44;2.13;;;1.70;;
7412;SDS011;3748;48.136;11.538;2023-02-04T13:40:11;2.27;;;1.90;;
7412;SDS011;3748;48.136;11.538;2023-02-04T13:42:39;4.63;;;1.90;;
7412;SDS011;3748;48.136;11.538;2023-02-04T13:45:06;4.73;;;2.57;;
7412;SDS011;3748;48.136;11.538;2023-02-04T13:47:36;3.10;;;2.07;;
7412;SDS011;3748;48.136;11.538;2023-02-04T13:50:04;2.60;;;2.40;;
7412;SDS011;3748;48.136;11.538;2023-02-04T13:52:31;1.97;;;1.87;;
7412;SDS011;3748;48.136;11.538;2023-02-04T13:54:58;2.20;;;2.00;;
7412;SDS011;3748;48.136;11.538;2023-02-04T13:57:25;1.63;;;1.53;;
7412;SDS011;3748;48.136;11.538;2023-02-04T13:59:54;4.43;;;1.90;;
7412;SDS011;3748;48.136;11.538;2023-02-04T14:02:32;1.80;;;1.67;;
7412;SDS011;3748;48.136;11.538;2023-02-04T14:05:11;1.40;;;1.30;;
7412;SDS011;3748;48.136;11.538;2023-02-04T14:07:47;2.13;;;1.60;;
7412;SDS011;3748;48.136;11.538;2023-02-04T14:10:18;1.47;;;1.37;;
7412;SDS011;3748;48.136;11.538;2023-02-04T14:12:52;2.50;;;1.80;;
7412;SDS011;3748;48.136;11.538;2023-02-04T14:15:27;2.70;;;1.87;;
7412;SDS011;3748;48.136;11.538;2023-02-04T14:17:54;2.43;;;1.50;;
7412;SDS011;3748;48.136;11.538;2023-02-04T14:20:20;2.43;;;2.10;;
7412;SDS011;3748;48.136;11.538;2023-02-04T14:22:47;1.97;;;1.87;;
7412;SDS011;3748;48.136;11.538;2023-02-04T14:25:14;1.60;;;1.50;;
7412;SDS011;3748;48.136;11.538;2023-02-04T14:27:41;1.33;;;1.20;;
7412;SDS011;3748;48.136;11.538;2023-02-04T14:30:10;4.43;;;1.80;;
7412;SDS011;3748;48.136;11.538;2023-02-04T14:32:42;4.87;;;4.30;;
7412;SDS011;3748;48.136;11.538;2023-02-04T14:35:09;1.63;;;1.30;;
7412;SDS011;3748;48.136;11.538;2023-02-04T14:37:36;2.33;;;1.70;;
7412;SDS011;3748;48.136;11.538;2023-02-04T14:40:03;2.93;;;2.07;;
7412;SDS011;3748;48.136;11.538;2023-02-04T14:42:31;2.57;;;1.70;;
7412;SDS011;3748;48.136;11.538;2023-02-04T14:44:58;2.77;;;1.53;;
7412;SDS011;3748;48.136;11.538;2023-02-04T14:47:25;1.53;;;1.27;;
7412;SDS011;3748;48.136;11.538;2023-02-04T14:49:53;2.80;;;1.40;;
7412;SDS011;3748;48.136;11.538;2023-02-04T14:52:19;1.80;;;1.70;;
7412;SDS011;3748;48.136;11.538;2023-02-04T14:54:46;2.20;;;1.50;;
7412;SDS011;3748;48.136;11.538;2023-02-04T14:57:13;2.70;;;1.50;;
7412;SDS011;3748;48.136;11.538;2023-02-04T14:59:40;2.37;;;2.03;;
7412;SDS011;3748;48.136;11.538;2023-02-04T15:02:08;2.07;;;1.67;;
7412;SDS011;3748;48.136;11.538;2023-02-04T15:04:35;1.70;;;1.50;;
7412;SDS011;3748;48.136;11.538;2023-02-04T15:07:04;2.67;;;2.00;;
7412;SDS011;3748;48.136;11.538;2023-02-04T15:09:32;2.70;;;1.83;;
7412;SDS011;3748;48.136;11.538;2023-02-04T15:11:59;1.40;;;1.30;;
7412;SDS011;3748;48.136;11.538;2023-02-04T15:14:26;2.43;;;2.23;;
7412;SDS011;3748;48.136;11.538;2023-02-04T15:16:52;3.20;;;1.70;;
7412;SDS011;3748;48.136;11.538;2023-02-04T15:19:19;2.30;;;2.10;;
7412;SDS011;3748;48.136;11.538;2023-02-04T15:21:47;3.00;;;1.83;;
7412;SDS011;3748;48.136;11.538;2023-02-04T15:24:16;1.80;;;1.70;;
7412;SDS011;3748;48.136;11.538;2023-02-04T15:26:43;2.83;;;1.83;;
7412;SDS011;3748;48.136;11.538;2023-02-04T15:29:09;4.00;;;2.27;;
7412;SDS011;3748;48.136;11.538;2023-02-04T15:31:36;1.77;;;1.67;;
7412;SDS011;3748;48.136;11.538;2023-02-04T15:34:03;2.27;;;1.90;;
7412;SDS011;3748;48.136;11.538;2023-02-04T15:36:30;1.50;;;1.40;;
7412;SDS011;3748;48.136;11.538;2023-02-04T15:38:57;2.40;;;1.80;;
7412;SDS011;3748;48.136;11.538;2023-02-04T15:41:25;1.40;;;1.30;;
7412;SDS011;3748;48.136;11.538;2023-02-04T15:43:52;1.87;;;1.63;;
7412;SDS011;3748;48.136;11.538;2023-02-04T15:46:19;2.80;;;2.03;;
7412;SDS011;3748;48.136;11.538;2023-02-04T15:48:46;3.90;;;1.90;;